sensor_id;sensor_type;location;lat;lon;timestamp;P1;durP1;ratioP1;P2;durP2;ratioP2
40755;SDS011;26461;45.630;9.418;2023-07-22T00:01:11;33.80;;;32.10;;
40755;SDS011;26461;45.630;9.418;2023-07-22T00:04:16;36.17;;;34.37;;
40755;SDS011;26461;45.630;9.418;2023-07-22T00:07:27;33.37;;;31.77;;
40755;SDS011;26461;45.630;9.418;2023-07-22T00:10:33;32.73;;;31.13;;
40755;SDS011;26461;45.630;9.418;2023-07-22T00:13:43;33.90;;;32.23;;
40755;SDS011;26461;45.630;9.418;2023-07-22T00:16:49;33.40;;;31.77;;
40755;SDS011;26461;45.630;9.418;2023-07-22T00:19:59;30.87;;;29.37;;
40755;SDS011;26461;45.630;9.418;2023-07-22T00:23:09;33.67;;;32.00;;
40755;SDS011;26461;45.630;9.418;2023-07-22T00:26:15;31.77;;;30.17;;
40755;SDS011;26461;45.630;9.418;2023-07-22T00:29:20;32.83;;;31.23;;
40755;SDS011;26461;45.630;9.418;2023-07-22T00:32:26;29.80;;;28.30;;
40755;SDS011;26461;45.630;9.418;2023-07-22T00:35:36;30.77;;;29.27;;
40755;SDS011;26461;45.630;9.418;2023-07-22T00:38:42;30.63;;;29.13;;
40755;SDS011;26461;45.630;9.418;2023-07-22T00:41:47;29.73;;;28.23;;
40755;SDS011;26461;45.630;9.418;2023-07-22T00:44:53;30.00;;;28.50;;
40755;SDS011;26461;45.630;9.418;2023-07-22T00:48:00;29.83;;;28.33;;
40755;SDS011;26461;45.630;9.418;2023-07-22T00:51:11;30.23;;;28.73;;
40755;SDS011;26461;45.630;9.418;2023-07-22T00:54:21;28.87;;;27.47;;
40755;SDS011;26461;45.630;9.418;2023-07-22T00:57:33;30.07;;;28.57;;
40755;SDS011;26461;45.630;9.418;2023-07-22T01:00:38;30.10;;;28.60;;
40755;SDS011;26461;45.630;9.418;2023-07-22T01:03:49;30.27;;;28.77;;
40755;SDS011;26461;45.630;9.418;2023-07-22T01:06:54;29.00;;;27.60;;
40755;SDS011;26461;45.630;9.418;2023-07-22T01:10:05;30.10;;;28.60;;
40755;SDS011;26461;45.630;9.418;2023-07-22T01:13:11;29.87;;;28.37;;
40755;SDS011;26461;45.630;9.418;2023-07-22T01:16:16;28.67;;;27.27;;
40755;SDS011;26461;45.630;9.418;2023-07-22T01:19:27;28.70;;;27.30;;
40755;SDS011;26461;45.630;9.418;2023-07-22T01:22:33;29.70;;;28.20;;
40755;SDS011;26461;45.630;9.418;2023-07-22T01:25:39;29.97;;;28.47;;
40755;SDS011;26461;45.630;9.418;2023-07-22T01:28:45;30.30;;;28.80;;
40755;SDS011;26461;45.630;9.418;2023-07-22T01:31:52;29.17;;;27.77;;
40755;SDS011;26461;45.630;9.418;2023-07-22T01:35:04;29.10;;;27.70;;
40755;SDS011;26461;45.630;9.418;2023-07-22T01:38:14;26.97;;;25.67;;
40755;SDS011;26461;45.630;9.418;2023-07-22T01:41:20;28.10;;;26.70;;
40755;SDS011;26461;45.630;9.418;2023-07-22T01:44:30;29.10;;;27.70;;
40755;SDS011;26461;45.630;9.418;2023-07-22T01:47:37;27.60;;;26.20;;
40755;SDS011;26461;45.630;9.418;2023-07-22T01:50:43;29.00;;;27.60;;
40755;SDS011;26461;45.630;9.418;2023-07-22T01:53:49;27.17;;;25.87;;
40755;SDS011;26461;45.630;9.418;2023-07-22T01:57:00;26.77;;;25.47;;
40755;SDS011;26461;45.630;9.418;2023-07-22T02:00:06;25.87;;;24.57;;
40755;SDS011;26461;45.630;9.418;2023-07-22T02:03:21;26.10;;;24.80;;
40755;SDS011;26461;45.630;9.418;2023-07-22T02:06:31;26.63;;;25.33;;
40755;SDS011;26461;45.630;9.418;2023-07-22T02:09:36;25.60;;;24.30;;
40755;SDS011;26461;45.630;9.418;2023-07-22T02:12:42;26.57;;;25.27;;
40755;SDS011;26461;45.630;9.418;2023-07-22T02:15:48;24.03;;;22.83;;
40755;SDS011;26461;45.630;9.418;2023-07-22T02:18:58;25.97;;;24.67;;
40755;SDS011;26461;45.630;9.418;2023-07-22T02:22:04;24.63;;;23.43;;
40755;SDS011;26461;45.630;9.418;2023-07-22T02:25:10;24.60;;;23.40;;
40755;SDS011;26461;45.630;9.418;2023-07-22T02:28:21;22.93;;;21.80;;
40755;SDS011;26461;45.630;9.418;2023-07-22T02:31:33;24.60;;;23.40;;
40755;SDS011;26461;45.630;9.418;2023-07-22T02:34:38;24.00;;;22.80;;
40755;SDS011;26461;45.630;9.418;2023-07-22T02:37:49;23.07;;;21.93;;
40755;SDS011;26461;45.630;9.418;2023-07-22T02:41:03;23.27;;;22.10;;
40755;SDS011;26461;45.630;9.418;2023-07-22T02:44:16;22.47;;;21.37;;
40755;SDS011;26461;45.630;9.418;2023-07-22T02:47:26;24.57;;;23.37;;
40755;SDS011;26461;45.630;9.418;2023-07-22T02:50:34;23.93;;;22.73;;
40755;SDS011;26461;45.630;9.418;2023-07-22T02:53:44;22.20;;;21.10;;
40755;SDS011;26461;45.630;9.418;2023-07-22T02:56:58;22.60;;;21.50;;
40755;SDS011;26461;45.630;9.418;2023-07-22T03:00:05;20.60;;;19.60;;
40755;SDS011;26461;45.630;9.418;2023-07-22T03:03:12;20.10;;;19.10;;
40755;SDS011;26461;45.630;9.418;2023-07-22T03:06:17;20.87;;;19.83;;
40755;SDS011;26461;45.630;9.418;2023-07-22T03:09:28;20.70;;;19.70;;
40755;SDS011;26461;45.630;9.418;2023-07-22T03:12:34;21.37;;;20.27;;
40755;SDS011;26461;45.630;9.418;2023-07-22T03:15:44;20.93;;;19.90;;
40755;SDS011;26461;45.630;9.418;2023-07-22T03:18:50;19.50;;;18.50;;
40755;SDS011;26461;45.630;9.418;2023-07-22T03:21:55;20.20;;;19.20;;
40755;SDS011;26461;45.630;9.418;2023-07-22T03:25:06;21.37;;;20.27;;
40755;SDS011;26461;45.630;9.418;2023-07-22T03:28:14;20.00;;;19.00;;
40755;SDS011;26461;45.630;9.418;2023-07-22T03:31:21;20.10;;;19.10;;
40755;SDS011;26461;45.630;9.418;2023-07-22T03:34:27;20.97;;;19.93;;
40755;SDS011;26461;45.630;9.418;2023-07-22T03:37:32;20.70;;;19.70;;
40755;SDS011;26461;45.630;9.418;2023-07-22T03:40:40;18.73;;;17.80;;
40755;SDS011;26461;45.630;9.418;2023-07-22T03:43:46;19.93;;;18.93;;
40755;SDS011;26461;45.630;9.418;2023-07-22T03:46:59;18.40;;;17.50;;
40755;SDS011;26461;45.630;9.418;2023-07-22T03:50:04;19.83;;;18.83;;
40755;SDS011;26461;45.630;9.418;2023-07-22T03:53:10;18.73;;;17.83;;
40755;SDS011;26461;45.630;9.418;2023-07-22T03:56:16;19.63;;;18.63;;
40755;SDS011;26461;45.630;9.418;2023-07-22T03:59:26;18.53;;;17.63;;
40755;SDS011;26461;45.630;9.418;2023-07-22T04:02:38;18.27;;;17.37;;
40755;SDS011;26461;45.630;9.418;2023-07-22T04:05:43;19.00;;;18.03;;
40755;SDS011;26461;45.630;9.418;2023-07-22T04:08:49;18.67;;;17.77;;
40755;SDS011;26461;45.630;9.418;2023-07-22T04:11:54;18.33;;;17.43;;
40755;SDS011;26461;45.630;9.418;2023-07-22T04:15:05;19.20;;;18.20;;
40755;SDS011;26461;45.630;9.418;2023-07-22T04:18:16;18.30;;;17.40;;
40755;SDS011;26461;45.630;9.418;2023-07-22T04:21:27;18.70;;;17.80;;
40755;SDS011;26461;45.630;9.418;2023-07-22T04:24:32;18.83;;;17.90;;
40755;SDS011;26461;45.630;9.418;2023-07-22T04:27:43;18.30;;;17.40;;
40755;SDS011;26461;45.630;9.418;2023-07-22T04:30:55;19.43;;;18.43;;
40755;SDS011;26461;45.630;9.418;2023-07-22T04:34:03;18.37;;;17.47;;
40755;SDS011;26461;45.630;9.418;2023-07-22T04:37:08;18.60;;;17.70;;
40755;SDS011;26461;45.630;9.418;2023-07-22T04:40:14;18.37;;;17.47;;
40755;SDS011;26461;45.630;9.418;2023-07-22T04:43:21;17.77;;;16.87;;
40755;SDS011;26461;45.630;9.418;2023-07-22T04:46:27;19.50;;;18.50;;
40755;SDS011;26461;45.630;9.418;2023-07-22T04:49:32;19.60;;;18.60;;
40755;SDS011;26461;45.630;9.418;2023-07-22T04:52:44;20.40;;;19.40;;
40755;SDS011;26461;45.630;9.418;2023-07-22T04:55:56;21.70;;;20.60;;
40755;SDS011;26461;45.630;9.418;2023-07-22T04:59:02;21.17;;;20.10;;
40755;SDS011;26461;45.630;9.418;2023-07-22T05:02:07;20.40;;;19.40;;
40755;SDS011;26461;45.630;9.418;2023-07-22T05:05:18;21.13;;;20.07;;
40755;SDS011;26461;45.630;9.418;2023-07-22T05:08:28;20.17;;;19.17;;
40755;SDS011;26461;45.630;9.418;2023-07-22T05:11:34;21.20;;;20.10;;
40755;SDS011;26461;45.630;9.418;2023-07-22T05:14:45;21.23;;;20.17;;
40755;SDS011;26461;45.630;9.418;2023-07-22T05:17:55;20.40;;;19.40;;
40755;SDS011;26461;45.630;9.418;2023-07-22T05:21:01;20.63;;;19.63;;
40755;SDS011;26461;45.630;9.418;2023-07-22T05:24:06;20.50;;;19.50;;
40755;SDS011;26461;45.630;9.418;2023-07-22T05:27:17;20.23;;;19.23;;
40755;SDS011;26461;45.630;9.418;2023-07-22T05:30:22;19.13;;;18.13;;
40755;SDS011;26461;45.630;9.418;2023-07-22T05:33:28;20.13;;;19.13;;
40755;SDS011;26461;45.630;9.418;2023-07-22T05:36:39;21.53;;;20.43;;
40755;SDS011;26461;45.630;9.418;2023-07-22T05:39:50;21.80;;;20.70;;
40755;SDS011;26461;45.630;9.418;2023-07-22T05:42:56;18.87;;;17.93;;
40755;SDS011;26461;45.630;9.418;2023-07-22T05:46:01;20.77;;;19.77;;
40755;SDS011;26461;45.630;9.418;2023-07-22T05:49:11;19.57;;;18.57;;
40755;SDS011;26461;45.630;9.418;2023-07-22T05:52:17;19.73;;;18.73;;
40755;SDS011;26461;45.630;9.418;2023-07-22T05:55:22;19.30;;;18.30;;
40755;SDS011;26461;45.630;9.418;2023-07-22T05:58:33;20.40;;;19.40;;
40755;SDS011;26461;45.630;9.418;2023-07-22T06:01:44;20.67;;;19.67;;
40755;SDS011;26461;45.630;9.418;2023-07-22T06:04:54;19.83;;;18.83;;
40755;SDS011;26461;45.630;9.418;2023-07-22T06:08:00;19.07;;;18.10;;
40755;SDS011;26461;45.630;9.418;2023-07-22T06:11:10;19.43;;;18.43;;
40755;SDS011;26461;45.630;9.418;2023-07-22T06:14:16;20.23;;;19.23;;
40755;SDS011;26461;45.630;9.418;2023-07-22T06:17:21;19.40;;;18.40;;
40755;SDS011;26461;45.630;9.418;2023-07-22T06:20:27;19.67;;;18.67;;
40755;SDS011;26461;45.630;9.418;2023-07-22T06:23:38;19.30;;;18.30;;
40755;SDS011;26461;45.630;9.418;2023-07-22T06:26:44;19.83;;;18.83;;
40755;SDS011;26461;45.630;9.418;2023-07-22T06:29:55;23.37;;;22.20;;
40755;SDS011;26461;45.630;9.418;2023-07-22T06:33:05;24.50;;;23.30;;
40755;SDS011;26461;45.630;9.418;2023-07-22T06:36:16;25.53;;;24.23;;
40755;SDS011;26461;45.630;9.418;2023-07-22T06:39:27;25.47;;;24.17;;
40755;SDS011;26461;45.630;9.418;2023-07-22T06:42:38;24.50;;;23.30;;
40755;SDS011;26461;45.630;9.418;2023-07-22T06:45:44;24.40;;;23.20;;
40755;SDS011;26461;45.630;9.418;2023-07-22T06:48:54;24.23;;;23.03;;
40755;SDS011;26461;45.630;9.418;2023-07-22T06:52:05;21.50;;;20.40;;
40755;SDS011;26461;45.630;9.418;2023-07-22T06:55:11;21.67;;;20.57;;
40755;SDS011;26461;45.630;9.418;2023-07-22T06:58:22;20.57;;;19.57;;
40755;SDS011;26461;45.630;9.418;2023-07-22T07:01:33;20.03;;;19.03;;
40755;SDS011;26461;45.630;9.418;2023-07-22T07:04:38;17.70;;;16.80;;
40755;SDS011;26461;45.630;9.418;2023-07-22T07:07:43;17.47;;;16.57;;
40755;SDS011;26461;45.630;9.418;2023-07-22T07:10:49;16.67;;;15.83;;
40755;SDS011;26461;45.630;9.418;2023-07-22T07:14:01;16.50;;;15.70;;
40755;SDS011;26461;45.630;9.418;2023-07-22T07:17:07;14.80;;;14.00;;
40755;SDS011;26461;45.630;9.418;2023-07-22T07:20:13;13.60;;;12.90;;
40755;SDS011;26461;45.630;9.418;2023-07-22T07:23:19;13.17;;;12.47;;
40755;SDS011;26461;45.630;9.418;2023-07-22T07:26:29;11.77;;;11.17;;
40755;SDS011;26461;45.630;9.418;2023-07-22T07:29:35;10.03;;;9.53;;
40755;SDS011;26461;45.630;9.418;2023-07-22T07:32:45;10.73;;;10.13;;
40755;SDS011;26461;45.630;9.418;2023-07-22T07:35:56;11.70;;;9.70;;
40755;SDS011;26461;45.630;9.418;2023-07-22T07:39:01;8.87;;;8.37;;
40755;SDS011;26461;45.630;9.418;2023-07-22T07:42:08;7.70;;;7.30;;
40755;SDS011;26461;45.630;9.418;2023-07-22T07:45:14;9.40;;;7.23;;
40755;SDS011;26461;45.630;9.418;2023-07-22T07:48:19;8.13;;;7.70;;
40755;SDS011;26461;45.630;9.418;2023-07-22T07:51:25;7.90;;;7.50;;
40755;SDS011;26461;45.630;9.418;2023-07-22T07:54:31;7.97;;;7.53;;
40755;SDS011;26461;45.630;9.418;2023-07-22T07:57:37;7.63;;;7.20;;
40755;SDS011;26461;45.630;9.418;2023-07-22T08:00:43;8.00;;;7.67;;
40755;SDS011;26461;45.630;9.418;2023-07-22T08:03:54;7.77;;;7.37;;
40755;SDS011;26461;45.630;9.418;2023-07-22T08:07:00;7.57;;;7.17;;
40755;SDS011;26461;45.630;9.418;2023-07-22T08:10:05;9.90;;;6.60;;
40755;SDS011;26461;45.630;9.418;2023-07-22T08:13:14;9.50;;;5.90;;
40755;SDS011;26461;45.630;9.418;2023-07-22T08:16:19;7.10;;;6.70;;
40755;SDS011;26461;45.630;9.418;2023-07-22T08:19:30;13.57;;;6.60;;
40755;SDS011;26461;45.630;9.418;2023-07-22T08:22:36;8.20;;;7.60;;
40755;SDS011;26461;45.630;9.418;2023-07-22T08:25:41;10.17;;;9.47;;
40755;SDS011;26461;45.630;9.418;2023-07-22T08:28:47;10.90;;;9.07;;
40755;SDS011;26461;45.630;9.418;2023-07-22T08:31:58;11.57;;;9.33;;
40755;SDS011;26461;45.630;9.418;2023-07-22T08:35:09;11.80;;;9.10;;
40755;SDS011;26461;45.630;9.418;2023-07-22T08:38:14;11.43;;;9.13;;
40755;SDS011;26461;45.630;9.418;2023-07-22T08:41:20;12.30;;;9.27;;
40755;SDS011;26461;45.630;9.418;2023-07-22T08:44:33;12.63;;;9.17;;
40755;SDS011;26461;45.630;9.418;2023-07-22T08:47:49;9.53;;;9.03;;
40755;SDS011;26461;45.630;9.418;2023-07-22T08:51:23;11.37;;;9.77;;
40755;SDS011;26461;45.630;9.418;2023-07-22T08:54:28;9.50;;;8.50;;
40755;SDS011;26461;45.630;9.418;2023-07-22T08:57:39;10.73;;;9.23;;
40755;SDS011;26461;45.630;9.418;2023-07-22T09:00:46;8.80;;;8.00;;
40755;SDS011;26461;45.630;9.418;2023-07-22T09:03:57;10.70;;;8.57;;
40755;SDS011;26461;45.630;9.418;2023-07-22T09:07:03;11.60;;;8.80;;
40755;SDS011;26461;45.630;9.418;2023-07-22T09:10:10;8.83;;;7.47;;
40755;SDS011;26461;45.630;9.418;2023-07-22T09:13:17;11.27;;;8.63;;
40755;SDS011;26461;45.630;9.418;2023-07-22T09:16:25;11.10;;;8.70;;
40755;SDS011;26461;45.630;9.418;2023-07-22T09:19:32;11.57;;;8.67;;
40755;SDS011;26461;45.630;9.418;2023-07-22T09:22:47;16.80;;;10.03;;
40755;SDS011;26461;45.630;9.418;2023-07-22T09:26:10;13.33;;;8.87;;
40755;SDS011;26461;45.630;9.418;2023-07-22T09:29:32;11.40;;;8.87;;
40755;SDS011;26461;45.630;9.418;2023-07-22T09:32:39;10.07;;;8.70;;
40755;SDS011;26461;45.630;9.418;2023-07-22T09:35:45;12.93;;;8.93;;
40755;SDS011;26461;45.630;9.418;2023-07-22T09:39:00;13.93;;;9.90;;
40755;SDS011;26461;45.630;9.418;2023-07-22T09:42:07;9.77;;;8.00;;
40755;SDS011;26461;45.630;9.418;2023-07-22T09:45:13;11.13;;;8.80;;
40755;SDS011;26461;45.630;9.418;2023-07-22T09:48:20;8.87;;;7.83;;
40755;SDS011;26461;45.630;9.418;2023-07-22T09:51:27;11.03;;;7.80;;
40755;SDS011;26461;45.630;9.418;2023-07-22T09:54:47;10.53;;;8.20;;
40755;SDS011;26461;45.630;9.418;2023-07-22T09:57:58;8.97;;;7.73;;
40755;SDS011;26461;45.630;9.418;2023-07-22T10:01:05;9.47;;;8.20;;
40755;SDS011;26461;45.630;9.418;2023-07-22T10:04:12;11.30;;;8.27;;
40755;SDS011;26461;45.630;9.418;2023-07-22T10:07:21;9.87;;;7.63;;
40755;SDS011;26461;45.630;9.418;2023-07-22T10:10:33;10.83;;;7.70;;
40755;SDS011;26461;45.630;9.418;2023-07-22T10:13:42;7.90;;;6.53;;
40755;SDS011;26461;45.630;9.418;2023-07-22T10:16:48;10.63;;;8.37;;
40755;SDS011;26461;45.630;9.418;2023-07-22T10:20:02;12.90;;;7.23;;
40755;SDS011;26461;45.630;9.418;2023-07-22T10:23:13;9.67;;;7.97;;
40755;SDS011;26461;45.630;9.418;2023-07-22T10:26:24;11.40;;;7.50;;
40755;SDS011;26461;45.630;9.418;2023-07-22T10:29:30;7.60;;;7.20;;
40755;SDS011;26461;45.630;9.418;2023-07-22T10:32:40;8.90;;;7.70;;
40755;SDS011;26461;45.630;9.418;2023-07-22T10:39:38;7.90;;;7.13;;
40755;SDS011;26461;45.630;9.418;2023-07-22T10:43:04;9.80;;;7.00;;
40755;SDS011;26461;45.630;9.418;2023-07-22T10:46:13;10.60;;;8.13;;
40755;SDS011;26461;45.630;9.418;2023-07-22T10:49:24;8.27;;;7.60;;
40755;SDS011;26461;45.630;9.418;2023-07-22T10:52:44;8.43;;;6.50;;
40755;SDS011;26461;45.630;9.418;2023-07-22T10:56:07;10.13;;;7.50;;
40755;SDS011;26461;45.630;9.418;2023-07-22T10:59:27;8.57;;;5.67;;
40755;SDS011;26461;45.630;9.418;2023-07-22T11:02:37;8.40;;;5.47;;
40755;SDS011;26461;45.630;9.418;2023-07-22T11:05:50;7.90;;;6.10;;
40755;SDS011;26461;45.630;9.418;2023-07-22T11:08:57;7.50;;;6.90;;
40755;SDS011;26461;45.630;9.418;2023-07-22T11:12:11;12.90;;;9.73;;
40755;SDS011;26461;45.630;9.418;2023-07-22T11:15:27;9.57;;;6.47;;
40755;SDS011;26461;45.630;9.418;2023-07-22T11:18:42;10.47;;;8.13;;
40755;SDS011;26461;45.630;9.418;2023-07-22T11:21:55;7.90;;;6.50;;
40755;SDS011;26461;45.630;9.418;2023-07-22T11:25:04;11.93;;;7.03;;
40755;SDS011;26461;45.630;9.418;2023-07-22T11:28:16;7.40;;;6.00;;
40755;SDS011;26461;45.630;9.418;2023-07-22T11:31:31;6.93;;;5.57;;
40755;SDS011;26461;45.630;9.418;2023-07-22T11:34:47;8.50;;;5.90;;
40755;SDS011;26461;45.630;9.418;2023-07-22T11:38:00;7.60;;;6.60;;
40755;SDS011;26461;45.630;9.418;2023-07-22T11:41:08;10.47;;;7.13;;
40755;SDS011;26461;45.630;9.418;2023-07-22T11:44:19;12.77;;;5.97;;
40755;SDS011;26461;45.630;9.418;2023-07-22T11:47:32;6.43;;;4.90;;
40755;SDS011;26461;45.630;9.418;2023-07-22T11:50:38;5.70;;;4.20;;
40755;SDS011;26461;45.630;9.418;2023-07-22T11:53:52;5.47;;;4.77;;
40755;SDS011;26461;45.630;9.418;2023-07-22T11:57:14;6.63;;;5.20;;
40755;SDS011;26461;45.630;9.418;2023-07-22T12:00:26;5.77;;;5.00;;
40755;SDS011;26461;45.630;9.418;2023-07-22T12:03:32;10.43;;;5.53;;
40755;SDS011;26461;45.630;9.418;2023-07-22T12:06:39;7.90;;;5.30;;
40755;SDS011;26461;45.630;9.418;2023-07-22T12:09:47;9.47;;;5.30;;
40755;SDS011;26461;45.630;9.418;2023-07-22T12:13:00;6.30;;;4.53;;
40755;SDS011;26461;45.630;9.418;2023-07-22T12:16:11;6.83;;;5.33;;
40755;SDS011;26461;45.630;9.418;2023-07-22T12:19:23;8.17;;;5.50;;
40755;SDS011;26461;45.630;9.418;2023-07-22T12:22:33;6.33;;;5.30;;
40755;SDS011;26461;45.630;9.418;2023-07-22T12:25:44;8.37;;;5.47;;
40755;SDS011;26461;45.630;9.418;2023-07-22T12:28:50;6.77;;;5.07;;
40755;SDS011;26461;45.630;9.418;2023-07-22T12:31:56;6.93;;;5.33;;
40755;SDS011;26461;45.630;9.418;2023-07-22T12:35:02;6.83;;;4.70;;
40755;SDS011;26461;45.630;9.418;2023-07-22T12:38:13;4.83;;;4.43;;
40755;SDS011;26461;45.630;9.418;2023-07-22T12:41:23;7.10;;;6.00;;
40755;SDS011;26461;45.630;9.418;2023-07-22T12:44:33;7.00;;;4.80;;
40755;SDS011;26461;45.630;9.418;2023-07-22T12:47:39;6.63;;;4.90;;
40755;SDS011;26461;45.630;9.418;2023-07-22T12:50:49;6.63;;;5.87;;
40755;SDS011;26461;45.630;9.418;2023-07-22T12:53:57;6.30;;;5.50;;
40755;SDS011;26461;45.630;9.418;2023-07-22T12:57:08;6.23;;;4.67;;
40755;SDS011;26461;45.630;9.418;2023-07-22T13:00:13;7.30;;;4.53;;
40755;SDS011;26461;45.630;9.418;2023-07-22T13:03:19;6.23;;;5.10;;
40755;SDS011;26461;45.630;9.418;2023-07-22T13:06:25;6.03;;;5.50;;
40755;SDS011;26461;45.630;9.418;2023-07-22T13:09:31;6.00;;;5.67;;
40755;SDS011;26461;45.630;9.418;2023-07-22T13:12:36;6.70;;;5.40;;
40755;SDS011;26461;45.630;9.418;2023-07-22T13:15:42;5.77;;;5.47;;
40755;SDS011;26461;45.630;9.418;2023-07-22T13:18:52;6.30;;;5.57;;
40755;SDS011;26461;45.630;9.418;2023-07-22T13:22:03;6.40;;;4.97;;
40755;SDS011;26461;45.630;9.418;2023-07-22T13:25:09;8.00;;;4.87;;
40755;SDS011;26461;45.630;9.418;2023-07-22T13:28:13;5.10;;;4.80;;
40755;SDS011;26461;45.630;9.418;2023-07-22T13:31:24;6.83;;;5.70;;
40755;SDS011;26461;45.630;9.418;2023-07-22T13:34:35;7.80;;;5.27;;
40755;SDS011;26461;45.630;9.418;2023-07-22T13:37:46;7.77;;;4.90;;
40755;SDS011;26461;45.630;9.418;2023-07-22T13:40:51;8.30;;;5.30;;
40755;SDS011;26461;45.630;9.418;2023-07-22T13:43:57;5.37;;;4.87;;
40755;SDS011;26461;45.630;9.418;2023-07-22T13:47:02;6.03;;;5.20;;
40755;SDS011;26461;45.630;9.418;2023-07-22T13:50:14;7.17;;;5.67;;
40755;SDS011;26461;45.630;9.418;2023-07-22T13:53:24;7.60;;;4.83;;
40755;SDS011;26461;45.630;9.418;2023-07-22T13:56:29;5.27;;;4.97;;
40755;SDS011;26461;45.630;9.418;2023-07-22T13:59:39;7.00;;;5.33;;
40755;SDS011;26461;45.630;9.418;2023-07-22T14:02:46;6.43;;;4.70;;
40755;SDS011;26461;45.630;9.418;2023-07-22T14:05:57;6.00;;;5.67;;
40755;SDS011;26461;45.630;9.418;2023-07-22T14:09:02;7.30;;;6.23;;
40755;SDS011;26461;45.630;9.418;2023-07-22T14:12:08;5.40;;;4.47;;
40755;SDS011;26461;45.630;9.418;2023-07-22T14:15:14;7.23;;;5.63;;
40755;SDS011;26461;45.630;9.418;2023-07-22T14:18:20;8.50;;;5.57;;
40755;SDS011;26461;45.630;9.418;2023-07-22T14:21:31;8.00;;;4.90;;
40755;SDS011;26461;45.630;9.418;2023-07-22T14:24:36;5.43;;;5.13;;
40755;SDS011;26461;45.630;9.418;2023-07-22T14:27:42;4.60;;;4.30;;
40755;SDS011;26461;45.630;9.418;2023-07-22T14:30:47;6.90;;;5.30;;
40755;SDS011;26461;45.630;9.418;2023-07-22T14:33:58;5.60;;;4.67;;
40755;SDS011;26461;45.630;9.418;2023-07-22T14:37:03;7.30;;;5.60;;
40755;SDS011;26461;45.630;9.418;2023-07-22T14:40:14;6.73;;;5.30;;
40755;SDS011;26461;45.630;9.418;2023-07-22T14:43:20;5.60;;;5.10;;
40755;SDS011;26461;45.630;9.418;2023-07-22T14:46:25;6.67;;;4.43;;
40755;SDS011;26461;45.630;9.418;2023-07-22T14:49:30;5.57;;;5.30;;
40755;SDS011;26461;45.630;9.418;2023-07-22T14:52:35;5.50;;;4.60;;
40755;SDS011;26461;45.630;9.418;2023-07-22T14:55:41;6.63;;;4.47;;
40755;SDS011;26461;45.630;9.418;2023-07-22T14:58:47;6.03;;;4.63;;
40755;SDS011;26461;45.630;9.418;2023-07-22T15:01:54;5.53;;;4.27;;
40755;SDS011;26461;45.630;9.418;2023-07-22T15:04:59;6.60;;;4.77;;
40755;SDS011;26461;45.630;9.418;2023-07-22T15:08:10;5.17;;;4.10;;
40755;SDS011;26461;45.630;9.418;2023-07-22T15:11:19;4.63;;;4.23;;
40755;SDS011;26461;45.630;9.418;2023-07-22T15:14:25;8.30;;;5.07;;
40755;SDS011;26461;45.630;9.418;2023-07-22T15:17:35;7.37;;;4.80;;
40755;SDS011;26461;45.630;9.418;2023-07-22T15:20:40;4.83;;;4.53;;
40755;SDS011;26461;45.630;9.418;2023-07-22T15:23:46;5.80;;;5.50;;
40755;SDS011;26461;45.630;9.418;2023-07-22T15:26:51;6.47;;;5.17;;
40755;SDS011;26461;45.630;9.418;2023-07-22T15:29:57;5.53;;;5.27;;
40755;SDS011;26461;45.630;9.418;2023-07-22T15:33:08;4.43;;;4.17;;
40755;SDS011;26461;45.630;9.418;2023-07-22T15:36:19;6.03;;;4.60;;
40755;SDS011;26461;45.630;9.418;2023-07-22T15:39:24;5.63;;;4.53;;
40755;SDS011;26461;45.630;9.418;2023-07-22T15:42:33;7.50;;;5.10;;
40755;SDS011;26461;45.630;9.418;2023-07-22T15:45:38;7.33;;;4.63;;
40755;SDS011;26461;45.630;9.418;2023-07-22T15:48:47;4.97;;;4.67;;
40755;SDS011;26461;45.630;9.418;2023-07-22T15:51:53;4.90;;;4.30;;
40755;SDS011;26461;45.630;9.418;2023-07-22T15:54:58;5.50;;;4.70;;
40755;SDS011;26461;45.630;9.418;2023-07-22T15:58:12;5.27;;;4.20;;
40755;SDS011;26461;45.630;9.418;2023-07-22T16:01:17;6.53;;;4.67;;
40755;SDS011;26461;45.630;9.418;2023-07-22T16:04:24;5.30;;;5.00;;
40755;SDS011;26461;45.630;9.418;2023-07-22T16:07:31;5.20;;;4.30;;
40755;SDS011;26461;45.630;9.418;2023-07-22T16:10:41;5.50;;;4.73;;
40755;SDS011;26461;45.630;9.418;2023-07-22T16:13:49;4.07;;;3.80;;
40755;SDS011;26461;45.630;9.418;2023-07-22T16:17:00;5.43;;;5.03;;
40755;SDS011;26461;45.630;9.418;2023-07-22T16:20:05;6.27;;;5.30;;
40755;SDS011;26461;45.630;9.418;2023-07-22T16:23:14;5.00;;;4.20;;
40755;SDS011;26461;45.630;9.418;2023-07-22T16:26:31;5.27;;;5.00;;
40755;SDS011;26461;45.630;9.418;2023-07-22T16:29:41;6.10;;;4.57;;
40755;SDS011;26461;45.630;9.418;2023-07-22T16:32:53;5.00;;;4.70;;
40755;SDS011;26461;45.630;9.418;2023-07-22T16:35:58;5.03;;;4.67;;
40755;SDS011;26461;45.630;9.418;2023-07-22T16:39:03;8.37;;;5.57;;
40755;SDS011;26461;45.630;9.418;2023-07-22T16:42:14;3.90;;;3.70;;
40755;SDS011;26461;45.630;9.418;2023-07-22T16:45:27;7.77;;;5.33;;
40755;SDS011;26461;45.630;9.418;2023-07-22T16:48:33;4.73;;;4.43;;
40755;SDS011;26461;45.630;9.418;2023-07-22T16:51:47;4.80;;;4.30;;
40755;SDS011;26461;45.630;9.418;2023-07-22T16:54:53;5.00;;;4.27;;
40755;SDS011;26461;45.630;9.418;2023-07-22T16:58:03;6.17;;;4.40;;
40755;SDS011;26461;45.630;9.418;2023-07-22T17:01:12;5.70;;;4.57;;
40755;SDS011;26461;45.630;9.418;2023-07-22T17:04:21;5.77;;;4.30;;
40755;SDS011;26461;45.630;9.418;2023-07-22T17:07:31;4.67;;;4.37;;
40755;SDS011;26461;45.630;9.418;2023-07-22T17:10:38;4.47;;;4.17;;
40755;SDS011;26461;45.630;9.418;2023-07-22T17:13:43;4.70;;;4.37;;
40755;SDS011;26461;45.630;9.418;2023-07-22T17:16:48;6.10;;;5.00;;
40755;SDS011;26461;45.630;9.418;2023-07-22T17:19:54;8.50;;;5.50;;
40755;SDS011;26461;45.630;9.418;2023-07-22T17:23:05;5.40;;;5.03;;
40755;SDS011;26461;45.630;9.418;2023-07-22T17:26:11;5.50;;;5.07;;
40755;SDS011;26461;45.630;9.418;2023-07-22T17:29:16;5.40;;;4.70;;
40755;SDS011;26461;45.630;9.418;2023-07-22T17:32:22;5.43;;;4.87;;
40755;SDS011;26461;45.630;9.418;2023-07-22T17:35:33;5.73;;;5.50;;
40755;SDS011;26461;45.630;9.418;2023-07-22T17:38:41;7.60;;;5.40;;
40755;SDS011;26461;45.630;9.418;2023-07-22T17:41:46;5.10;;;4.80;;
40755;SDS011;26461;45.630;9.418;2023-07-22T17:44:52;5.30;;;5.07;;
40755;SDS011;26461;45.630;9.418;2023-07-22T17:48:00;9.07;;;5.80;;
40755;SDS011;26461;45.630;9.418;2023-07-22T17:51:06;5.50;;;5.20;;
40755;SDS011;26461;45.630;9.418;2023-07-22T17:54:11;4.90;;;4.40;;
40755;SDS011;26461;45.630;9.418;2023-07-22T17:57:17;4.60;;;4.30;;
40755;SDS011;26461;45.630;9.418;2023-07-22T18:00:23;6.63;;;5.63;;
40755;SDS011;26461;45.630;9.418;2023-07-22T18:03:28;10.83;;;5.00;;
40755;SDS011;26461;45.630;9.418;2023-07-22T18:06:34;5.93;;;5.30;;
40755;SDS011;26461;45.630;9.418;2023-07-22T18:09:40;7.13;;;5.40;;
40755;SDS011;26461;45.630;9.418;2023-07-22T18:12:45;7.27;;;5.10;;
40755;SDS011;26461;45.630;9.418;2023-07-22T18:15:53;8.80;;;5.60;;
40755;SDS011;26461;45.630;9.418;2023-07-22T18:18:59;6.10;;;5.87;;
40755;SDS011;26461;45.630;9.418;2023-07-22T18:22:06;7.07;;;5.73;;
40755;SDS011;26461;45.630;9.418;2023-07-22T18:25:12;5.77;;;5.47;;
40755;SDS011;26461;45.630;9.418;2023-07-22T18:28:24;8.20;;;5.33;;
40755;SDS011;26461;45.630;9.418;2023-07-22T18:31:30;6.43;;;5.20;;
40755;SDS011;26461;45.630;9.418;2023-07-22T18:34:40;6.17;;;4.77;;
40755;SDS011;26461;45.630;9.418;2023-07-22T18:37:47;7.50;;;5.70;;
40755;SDS011;26461;45.630;9.418;2023-07-22T18:40:53;7.60;;;6.43;;
40755;SDS011;26461;45.630;9.418;2023-07-22T18:43:59;5.60;;;5.10;;